Time;durP1;ratioP1;P1;durP2;ratioP2;P2;SDS_P1;SDS_P2;PMS_P1;PMS_P2;Temp;Humidity;BMP_temperature;BMP_pressure;BME280_temperature;BME280_humidity;BME280_pressure;Samples;Min_cycle;Max_cycle;Signal;HPM_P1;HPM_P2
2022/12/27 00:02:11;;;;;;;15.80;10.50;;;;;;;7.39;95.79;98323.52;421828;1298;108321;-41
2022/12/27 00:12:18;;;;;;;16.90;11.70;;;;;;;7.43;95.97;98326.39;421949;1294;98535;-39
2022/12/27 00:22:26;;;;;;;17.30;10.60;;;;;;;7.47;95.92;98329.52;421795;1289;109399;-40
2022/12/27 00:32:33;;;;;;;14.50;9.90;;;;;;;7.46;95.91;98337.48;421814;1289;99227;-41
2022/12/27 00:42:40;;;;;;;13.30;8.10;;;;;;;7.45;96.04;98342.04;421778;1288;113077;-40
2022/12/27 00:52:47;;;;;;;17.40;9.40;;;;;;;7.41;96.14;98367.49;421819;1298;108261;-40
2022/12/27 01:02:54;;;;;;;14.00;9.30;;;;;;;7.37;96.34;98371.60;421721;1298;99108;-41
2022/12/27 01:13:00;;;;;;;10.30;7.50;;;;;;;7.37;96.39;98382.30;421834;1289;108057;-39
2022/12/27 01:23:07;;;;;;;10.80;6.70;;;;;;;7.33;96.68;98376.45;421679;1298;98850;-41
2022/12/27 01:33:14;;;;;;;10.20;6.20;;;;;;;7.32;96.61;98374.09;421701;1288;112423;-39
2022/12/27 01:43:20;;;;;;;7.20;5.00;;;;;;;7.30;96.51;98380.23;421754;1281;107244;-39
2022/12/27 01:53:33;;;;;;;5.10;3.80;;;;;;;7.25;96.65;98385.61;421817;1298;99236;-40
2022/12/27 02:03:44;;;;;;;4.00;3.30;;;;;;;7.21;96.49;98390.63;421760;1289;111555;-40
2022/12/27 02:13:52;;;;;;;2.50;2.10;;;;;;;7.18;96.67;98420.34;421761;1296;99258;-41
2022/12/27 02:24:28;;;;;;;1.80;1.30;;;;;;;6.95;96.51;98438.72;421667;1298;112064;-40
2022/12/27 02:34:40;;;;;;;1.90;0.50;;;;;;;6.63;96.35;98452.89;422220;1267;549173;-41
2022/12/27 02:55:15;;;;;;;1.10;0.80;;;;;;;6.17;96.11;98481.23;421801;1300;108525;-40
2022/12/27 03:05:20;;;;;;;1.30;1.20;;;;;;;6.03;95.94;98492.92;421928;1294;99242;-40
2022/12/27 03:26:01;;;;;;;5.50;1.90;;;;;;;5.91;95.99;98524.34;421892;1301;108341;-40
2022/12/27 03:46:33;;;;;;;17.40;5.30;;;;;;;5.80;95.97;98563.91;421772;1301;108417;-41
2022/12/27 04:06:48;;;;;;;8.90;4.00;;;;;;;5.75;96.15;98584.30;422038;1301;110346;-40
2022/12/27 04:37:43;;;;;;;4.80;2.50;;;;;;;4.93;95.15;98700.48;421869;1300;109519;-40
2022/12/27 04:58:15;;;;;;;6.10;2.20;;;;;;;4.00;94.65;98748.36;421973;1299;111119;-40
2022/12/27 05:18:48;;;;;;;6.40;2.30;;;;;;;3.67;94.48;98772.31;421922;1295;99247;-41
2022/12/27 05:28:58;;;;;;;14.90;3.50;;;;;;;3.45;94.13;98780.30;421970;1299;107170;-40
2022/12/27 05:39:05;;;;;;;29.50;10.90;;;;;;;3.23;94.12;98811.42;421865;1288;99422;-41
2022/12/27 05:49:12;;;;;;;21.50;4.50;;;;;;;2.98;94.08;98825.83;422024;1286;112048;-40
2022/12/27 05:59:20;;;;;;;10.30;2.90;;;;;;;2.76;94.10;98837.43;422004;1299;108559;-40
2022/12/27 06:09:27;;;;;;;12.40;3.10;;;;;;;2.69;94.04;98855.14;421861;1294;99230;-40
2022/12/27 06:19:35;;;;;;;8.20;2.50;;;;;;;2.64;94.00;98868.95;421892;1299;107794;-40
2022/12/27 06:29:40;;;;;;;7.30;2.00;;;;;;;2.59;93.94;98891.63;421966;1289;98939;-44
2022/12/27 06:39:48;;;;;;;11.30;2.80;;;;;;;2.53;93.93;98915.04;422065;1288;112199;-40
2022/12/27 07:00:02;;;;;;;9.20;2.60;;;;;;;2.43;94.09;98947.66;421993;1298;99326;-39
2022/12/27 07:10:10;;;;;;;6.80;3.60;;;;;;;2.39;94.09;98955.90;421952;1299;108514;-40
2022/12/27 07:30:22;;;;;;;6.60;2.80;;;;;;;2.46;94.16;99000.23;421957;1296;110675;-40
2022/12/27 07:40:30;;;;;;;5.20;2.10;;;;;;;2.55;94.17;99031.42;421832;1295;107840;-40
2022/12/27 07:50:37;;;;;;;8.30;4.30;;;;;;;2.67;94.30;99060.73;421963;1289;98888;-41
2022/12/27 08:00:44;;;;;;;14.90;3.40;;;;;;;2.82;94.22;99081.73;421897;1298;107928;-40
2022/12/27 08:10:52;;;;;;;9.50;2.70;;;;;;;2.87;94.15;99089.49;421948;1296;99258;-43
2022/12/27 08:20:58;;;;;;;8.90;2.50;;;;;;;3.00;93.86;99099.75;421939;1289;110796;-40
2022/12/27 08:31:07;;;;;;;13.10;3.10;;;;;;;3.97;94.01;99109.67;421917;1298;107263;-41
2022/12/27 08:41:19;;;;;;;11.20;3.10;;;;;;;3.76;92.92;99120.52;422050;1298;99240;-40
2022/12/27 08:51:27;;;;;;;7.00;2.30;;;;;;;3.60;92.70;99148.08;422030;1298;108194;-40
2022/12/27 09:01:46;;;;;;;10.10;2.30;;;;;;;3.60;92.40;99167.98;422130;1289;98045;-40
2022/12/27 09:11:53;;;;;;;8.80;2.50;;;;;;;3.66;92.17;99175.75;421903;1289;112271;-38
2022/12/27 09:22:02;;;;;;;16.30;4.60;;;;;;;3.77;91.92;99167.91;421922;1289;107735;-39
2022/12/27 09:32:09;;;;;;;9.60;2.80;;;;;;;3.88;91.64;99178.09;421958;1291;98828;-40
2022/12/27 09:42:18;;;;;;;8.30;4.00;;;;;;;3.83;91.09;99180.21;421988;1291;108118;-39
2022/12/27 09:52:51;;;;;;;13.20;3.10;;;;;;;4.02;91.04;99175.89;421919;1298;99268;-41
2022/12/27 10:03:03;;;;;;;6.80;2.70;;;;;;;4.27;90.51;99172.49;421889;1295;112007;-40
2022/12/27 10:13:16;;;;;;;9.60;3.10;;;;;;;4.34;89.90;99165.41;422012;1297;108964;-39
2022/12/27 10:23:24;;;;;;;15.90;6.70;;;;;;;4.38;89.26;99160.52;422056;1297;98113;-41
2022/12/27 10:33:34;;;;;;;22.40;8.90;;;;;;;4.56;88.52;99169.70;421962;1288;107988;-40
2022/12/27 10:43:44;;;;;;;18.40;5.60;;;;;;;4.64;88.38;99183.09;421977;1296;100720;-40
2022/12/27 10:54:01;;;;;;;14.50;5.00;;;;;;;4.78;87.69;99179.36;422016;1300;112123;-40
2022/12/27 11:04:13;;;;;;;10.40;2.60;;;;;;;4.85;86.85;99170.27;422052;1298;107196;-40
2022/12/27 11:14:26;;;;;;;16.30;5.00;;;;;;;4.77;85.42;99171.78;422056;1294;98857;-39
2022/12/27 11:24:34;;;;;;;13.00;4.00;;;;;;;4.74;84.57;99168.45;421847;1291;112801;-40
2022/12/27 11:44:52;;;;;;;12.70;4.00;;;;;;;4.69;83.42;99165.20;422063;1293;99133;-40
2022/12/27 11:55:13;;;;;;;5.30;2.10;;;;;;;4.66;82.99;99172.03;421895;1291;111045;-39
2022/12/27 12:05:45;;;;;;;5.20;2.60;;;;;;;4.59;82.28;99174.85;421989;1294;107462;-40
2022/12/27 12:16:27;;;;;;;24.30;9.60;;;;;;;4.61;82.67;99174.02;421970;1298;98830;-40
2022/12/27 12:26:37;;;;;;;42.40;16.10;;;;;;;4.62;82.09;99169.88;421883;1295;109474;-39
2022/12/27 12:36:48;;;;;;;36.50;14.20;;;;;;;4.59;81.33;99171.77;421838;1288;99371;-40
2022/12/27 12:46:57;;;;;;;30.50;15.10;;;;;;;4.58;81.28;99184.36;421928;1298;112070;-40
2022/12/27 12:57:09;;;;;;;24.80;11.70;;;;;;;4.43;81.52;99197.38;421870;1297;107755;-40
2022/12/27 13:07:24;;;;;;;34.90;18.40;;;;;;;4.23;81.34;99208.92;421864;1289;98015;-41
2022/12/27 13:17:36;;;;;;;12.40;3.90;;;;;;;4.21;81.63;99213.99;421761;1298;111457;-38
2022/12/27 13:27:41;;;;;;;9.70;5.10;;;;;;;4.39;82.02;99205.89;421755;1284;108521;-40
2022/12/27 13:37:52;;;;;;;7.10;4.70;;;;;;;4.30;81.65;99210.45;421972;1284;99226;-40
2022/12/27 13:48:12;;;;;;;9.70;3.90;;;;;;;4.17;81.69;99215.14;421835;1298;107487;-40
2022/12/27 13:58:32;;;;;;;;;;;;;;;4.08;81.58;99222.84;421790;1299;98020;-40
2022/12/27 14:09:17;;;;;;;13.50;3.10;;;;;;;4.01;81.50;99231.43;421850;1298;110247;-40
2022/12/27 14:19:38;;;;;;;11.40;4.30;;;;;;;3.91;81.39;99248.21;421753;1298;107045;-39
2022/12/27 14:30:19;;;;;;;8.80;3.80;;;;;;;3.78;81.84;99245.95;421811;1298;99278;-40
2022/12/27 14:40:58;;;;;;;12.90;6.40;;;;;;;3.71;82.02;99262.98;421116;1295;421646;-39
2022/12/27 14:51:32;;;;;;;10.40;6.00;;;;;;;3.66;81.77;99267.98;421472;1298;99278;-39
2022/12/27 15:02:00;;;;;;;12.80;6.30;;;;;;;3.55;81.97;99280.25;421882;1289;112177;-40
2022/12/27 15:12:09;;;;;;;16.80;7.50;;;;;;;3.41;82.06;99290.88;421767;1295;107386;-40
2022/12/27 15:22:17;;;;;;;14.30;6.70;;;;;;;3.35;81.91;99292.57;421739;1296;99133;-41
2022/12/27 15:32:26;;;;;;;17.40;8.40;;;;;;;3.34;81.92;99291.98;421711;1289;111508;-38
2022/12/27 15:42:37;;;;;;;21.60;11.30;;;;;;;3.31;82.20;99299.23;421768;1298;107784;-39
2022/12/27 16:03:30;;;;;;;5.10;2.70;;;;;;;3.08;82.00;99307.04;421790;1289;107944;-39
2022/12/27 16:13:50;;;;;;;6.20;3.30;;;;;;;3.04;82.26;99304.13;421584;1298;99185;-38
2022/12/27 16:23:59;;;;;;;13.60;6.40;;;;;;;3.06;82.55;99311.58;421703;1298;115215;-39
2022/12/27 16:34:10;;;;;;;14.40;5.40;;;;;;;2.97;82.64;99313.02;421702;1282;108482;-39
2022/12/27 16:44:25;;;;;;;14.50;6.60;;;;;;;2.92;82.81;99325.86;421829;1290;99275;-40
2022/12/27 16:54:31;;;;;;;7.60;4.10;;;;;;;2.96;82.91;99340.84;421691;1299;108243;-41
2022/12/27 17:04:58;;;;;;;8.50;4.30;;;;;;;3.02;83.09;99344.03;421760;1297;99222;-40
2022/12/27 17:15:12;;;;;;;9.30;4.80;;;;;;;3.09;83.09;99344.18;423158;1282;110602;-40
2022/12/27 17:25:21;;;;;;;9.40;4.80;;;;;;;3.07;83.26;99345.54;421675;1299;107632;-40
2022/12/27 17:35:30;;;;;;;16.00;7.60;;;;;;;3.02;83.29;99351.75;421836;1297;98085;-39
2022/12/27 17:45:42;;;;;;;12.20;7.20;;;;;;;2.97;83.31;99362.89;421862;1298;107185;-38
2022/12/27 18:06:24;;;;;;;8.80;5.50;;;;;;;3.03;83.57;99373.55;421716;1288;112224;-39
2022/12/27 18:16:32;;;;;;;13.90;8.30;;;;;;;3.01;83.73;99390.09;421820;1298;107334;-40
2022/12/27 18:26:41;;;;;;;39.60;14.70;;;;;;;2.96;83.76;99399.91;421714;1289;99238;-40
2022/12/27 18:36:51;;;;;;;14.90;6.80;;;;;;;2.88;83.55;99408.58;421869;1295;110972;-40
2022/12/27 18:47:00;;;;;;;17.40;9.00;;;;;;;2.88;83.69;99416.95;421694;1289;107141;-40
2022/12/27 18:57:11;;;;;;;24.00;13.40;;;;;;;2.91;83.87;99420.06;421819;1299;99255;-39
2022/12/27 19:07:19;;;;;;;34.40;13.90;;;;;;;2.89;83.77;99412.68;421851;1294;108926;-39
2022/12/27 19:17:30;;;;;;;34.50;15.30;;;;;;;2.77;83.91;99418.79;421798;1296;99348;-41
2022/12/27 19:27:37;;;;;;;22.10;10.20;;;;;;;2.74;83.97;99424.63;421856;1291;112180;-38
2022/12/27 19:37:44;;;;;;;20.80;9.20;;;;;;;2.72;83.96;99431.90;421650;1284;107967;-39
2022/12/27 19:47:54;;;;;;;45.10;15.00;;;;;;;2.73;84.18;99429.45;421780;1299;99215;-39
2022/12/27 19:58:01;;;;;;;43.50;18.30;;;;;;;2.55;84.15;99437.27;421833;1298;106247;-39
2022/12/27 20:08:15;;;;;;;70.70;21.30;;;;;;;2.24;84.00;99441.52;421977;1298;98635;-39
2022/12/27 20:18:23;;;;;;;36.50;15.80;;;;;;;1.95;84.35;99447.13;421859;1298;111015;-38
2022/12/27 20:28:29;;;;;;;20.50;9.20;;;;;;;1.93;84.52;99455.63;421844;1287;107929;-40
2022/12/27 20:38:37;;;;;;;27.70;13.30;;;;;;;1.92;84.66;99457.51;421282;1292;98056;-40
2022/12/27 20:48:47;;;;;;;20.30;8.50;;;;;;;2.00;84.82;99464.63;421938;1296;111553;-38
2022/12/27 20:58:54;;;;;;;18.00;7.50;;;;;;;2.12;84.96;99472.99;421805;1298;107745;-40
2022/12/27 21:09:01;;;;;;;23.20;10.30;;;;;;;2.13;84.98;99474.11;421823;1299;98858;-40
2022/12/27 21:19:09;;;;;;;27.80;12.90;;;;;;;2.04;85.18;99476.91;421916;1289;112234;-39
2022/12/27 21:29:18;;;;;;;31.30;12.20;;;;;;;2.01;85.39;99473.92;421904;1288;107628;-40
2022/12/27 21:39:25;;;;;;;12.00;7.70;;;;;;;2.06;85.34;99468.75;421872;1298;99115;-40
2022/12/27 21:49:33;;;;;;;19.80;9.90;;;;;;;2.14;85.46;99476.52;421794;1298;108296;-38
2022/12/27 22:09:47;;;;;;;28.90;12.30;;;;;;;2.12;85.80;99467.30;421819;1293;110296;-39
2022/12/27 22:19:54;;;;;;;25.00;12.50;;;;;;;2.13;85.79;99460.16;421759;1295;109173;-39
2022/12/27 22:30:02;;;;;;;30.90;11.70;;;;;;;2.00;85.85;99454.88;421876;1289;97987;-40
2022/12/27 22:40:11;;;;;;;18.40;9.60;;;;;;;1.87;85.82;99460.79;421944;1295;111956;-40
2022/12/27 22:50:38;;;;;;;9.20;6.30;;;;;;;1.92;85.93;99474.86;421922;1298;108613;-39
2022/12/27 23:00:45;;;;;;;11.00;6.00;;;;;;;2.07;86.15;99465.31;421727;1291;98049;-40
2022/12/27 23:10:52;;;;;;;13.90;7.30;;;;;;;2.23;86.25;99462.46;421761;1292;111422;-40
2022/12/27 23:20:59;;;;;;;17.90;9.40;;;;;;;2.23;86.40;99462.70;421852;1301;108407;-40
2022/12/27 23:31:28;;;;;;;16.80;9.70;;;;;;;2.11;86.43;99453.46;421897;1294;99240;-39
2022/12/27 23:51:42;;;;;;;17.70;10.20;;;;;;;1.90;86.29;99442.52;421649;1287;98435;-39
